Time;durP1;ratioP1;P1;durP2;ratioP2;P2;SDS_P1;SDS_P2;PMS_P1;PMS_P2;Temp;Humidity;BMP_temperature;BMP_pressure;BME280_temperature;BME280_humidity;BME280_pressure;Samples;Min_cycle;Max_cycle;Signal;HPM_P1;HPM_P2
2022/09/10 00:01:19;;;;;;;2.45;1.10;;;23.60;56.10;;;;;;4928819;28;88352;-86
2022/09/10 00:03:48;;;;;;;1.65;0.90;;;23.60;56.00;;;;;;4930098;28;88486;-85
2022/09/10 00:06:14;;;;;;;1.73;0.93;;;23.60;56.10;;;;;;4931335;28;87419;-86
2022/09/10 00:08:40;;;;;;;7.03;0.80;;;23.60;56.20;;;;;;4930996;28;88396;-86
2022/09/10 00:11:09;;;;;;;2.95;1.00;;;23.60;56.00;;;;;;4926999;28;88267;-86
2022/09/10 00:13:38;;;;;;;3.40;1.00;;;23.60;56.00;;;;;;4930254;28;86912;-86
2022/09/10 00:16:05;;;;;;;2.88;0.93;;;23.60;56.10;;;;;;4930119;28;87086;-86
2022/09/10 00:18:32;;;;;;;2.00;1.08;;;23.60;56.00;;;;;;4929252;28;91341;-86
2022/09/10 00:20:59;;;;;;;1.30;0.80;;;23.60;56.10;;;;;;4930150;28;88622;-86
2022/09/10 00:23:27;;;;;;;2.70;0.93;;;23.60;56.10;;;;;;4960575;28;87147;-86
2022/09/10 00:25:55;;;;;;;2.17;1.00;;;23.60;56.00;;;;;;4930714;28;87598;-86
2022/09/10 00:28:23;;;;;;;1.17;1.00;;;23.60;56.10;;;;;;4928798;28;88984;-87
2022/09/10 00:30:52;;;;;;;1.55;0.80;;;23.60;56.20;;;;;;4929309;28;88302;-86
2022/09/10 00:33:19;;;;;;;2.40;0.80;;;23.60;56.00;;;;;;4931444;28;87375;-86
2022/09/10 00:35:45;;;;;;;2.20;0.95;;;23.60;56.20;;;;;;4961015;28;90306;-86
2022/09/10 00:38:12;;;;;;;1.63;0.95;;;23.60;56.10;;;;;;4960185;28;91485;-85
2022/09/10 00:40:38;;;;;;;1.67;1.10;;;23.50;56.10;;;;;;4930394;28;87710;-86
2022/09/10 00:43:18;;;;;;;2.35;0.80;;;23.50;56.10;;;;;;4929210;28;87601;-86
2022/09/10 00:45:53;;;;;;;1.85;0.77;;;23.60;56.00;;;;;;4930073;28;87530;-86
2022/09/10 00:48:27;;;;;;;2.17;1.02;;;23.50;56.10;;;;;;4930661;28;88482;-86
2022/09/10 00:50:54;;;;;;;1.08;0.80;;;23.60;56.10;;;;;;4928264;28;87900;-86
2022/09/10 00:53:25;;;;;;;2.53;0.80;;;23.50;56.20;;;;;;4929754;28;88599;-86
2022/09/10 00:55:54;;;;;;;1.40;0.75;;;23.50;56.10;;;;;;4928544;28;87382;-86
2022/09/10 00:58:21;;;;;;;1.55;0.75;;;23.60;56.10;;;;;;4928988;28;87731;-86
2022/09/10 01:00:47;;;;;;;1.50;0.88;;;23.60;56.10;;;;;;4926556;28;91581;-86
2022/09/10 01:03:15;;;;;;;1.58;1.00;;;23.60;56.10;;;;;;4931442;28;87396;-86
2022/09/10 01:05:44;;;;;;;2.05;1.10;;;23.50;56.10;;;;;;4933045;28;86974;-86
2022/09/10 01:08:15;;;;;;;1.85;0.90;;;23.50;56.20;;;;;;4932689;28;88537;-87
2022/09/10 01:11:07;;;;;;;1.52;0.70;;;23.50;56.10;;;;;;4933266;28;88362;-86
2022/09/10 01:13:41;;;;;;;1.13;0.80;;;23.50;56.20;;;;;;4932829;28;87407;-86
2022/09/10 01:16:21;;;;;;;1.27;0.90;;;23.50;56.20;;;;;;4932877;28;88138;-86
2022/09/10 01:18:58;;;;;;;2.03;1.20;;;23.50;56.10;;;;;;4930523;28;92456;-86
2022/09/10 01:21:39;;;;;;;2.10;0.82;;;23.50;56.10;;;;;;4932361;28;89726;-86
2022/09/10 01:24:22;;;;;;;1.48;0.60;;;23.50;56.10;;;;;;4931172;28;87787;-86
2022/09/10 01:27:14;;;;;;;1.83;0.80;;;23.50;56.10;;;;;;4931304;28;86900;-86
2022/09/10 01:29:52;;;;;;;1.73;1.08;;;23.50;56.10;;;;;;4962560;28;90848;-86
2022/09/10 01:32:39;;;;;;;1.23;0.85;;;23.50;56.00;;;;;;4931583;28;87994;-86
2022/09/10 01:35:15;;;;;;;1.30;0.80;;;23.50;56.00;;;;;;4932301;28;87469;-86
2022/09/10 01:38:04;;;;;;;1.38;0.77;;;23.50;55.90;;;;;;4931838;28;87020;-86
2022/09/10 01:40:31;;;;;;;2.60;1.00;;;23.50;56.00;;;;;;4932197;28;87651;-86
2022/09/10 01:43:02;;;;;;;1.13;0.60;;;23.50;56.00;;;;;;4933631;28;88129;-86
2022/09/10 01:45:28;;;;;;;1.58;0.90;;;23.50;55.90;;;;;;4933130;28;87766;-86
2022/09/10 01:48:19;;;;;;;1.95;0.90;;;23.50;55.90;;;;;;4961991;28;88650;-86
2022/09/10 01:51:08;;;;;;;1.45;0.82;;;23.60;55.90;;;;;;4962737;28;91070;-86
2022/09/10 01:53:43;;;;;;;0.95;0.80;;;23.50;55.80;;;;;;4931590;28;87383;-86
2022/09/10 01:56:34;;;;;;;1.85;0.90;;;23.50;55.80;;;;;;4931017;28;87575;-86
2022/09/10 01:59:06;;;;;;;1.40;0.85;;;23.50;55.80;;;;;;4930901;28;87015;-86
2022/09/10 02:01:39;;;;;;;1.00;0.80;;;23.50;55.80;;;;;;4930910;28;88676;-86
2022/09/10 02:04:08;;;;;;;1.30;0.82;;;23.50;55.90;;;;;;4931268;28;90363;-86
2022/09/10 02:06:39;;;;;;;1.70;0.80;;;23.50;56.00;;;;;;4931044;28;86960;-86
2022/09/10 02:09:06;;;;;;;1.58;0.82;;;23.50;55.90;;;;;;4931622;28;87402;-86
2022/09/10 02:11:46;;;;;;;1.65;0.88;;;23.50;55.80;;;;;;4931541;28;88333;-86
2022/09/10 02:14:14;;;;;;;1.27;0.70;;;23.50;56.00;;;;;;4921137;28;90944;-86
2022/09/10 02:16:45;;;;;;;1.73;1.02;;;23.50;56.60;;;;;;4962515;28;87617;-86
2022/09/10 02:19:13;;;;;;;1.77;0.85;;;23.50;56.00;;;;;;4930606;28;87633;-86
2022/09/10 02:21:39;;;;;;;1.80;0.75;;;23.50;56.00;;;;;;4929124;28;88003;-86
2022/09/10 02:24:07;;;;;;;2.13;1.13;;;23.50;55.90;;;;;;4929103;28;88247;-86
2022/09/10 02:26:34;;;;;;;2.05;1.10;;;23.50;56.00;;;;;;4928297;28;87004;-86
2022/09/10 02:29:00;;;;;;;1.50;0.75;;;23.50;55.90;;;;;;4928004;28;91509;-85
2022/09/10 02:31:26;;;;;;;1.42;0.80;;;23.50;55.90;;;;;;4929941;28;88360;-85
2022/09/10 02:33:53;;;;;;;0.98;0.70;;;23.50;55.90;;;;;;4961967;28;91454;-86
2022/09/10 02:36:19;;;;;;;0.88;0.60;;;23.50;55.80;;;;;;4932660;28;88542;-86
2022/09/10 02:38:45;;;;;;;1.75;1.17;;;23.50;55.90;;;;;;4931420;28;87697;-86
2022/09/10 02:41:10;;;;;;;1.38;1.00;;;23.50;55.80;;;;;;4930421;28;88806;-86
2022/09/10 02:43:37;;;;;;;0.88;0.80;;;23.50;56.00;;;;;;4928889;28;90299;-86
2022/09/10 02:46:06;;;;;;;1.25;0.75;;;23.50;55.90;;;;;;4930705;28;87370;-86
2022/09/10 02:48:32;;;;;;;2.38;0.90;;;23.50;55.90;;;;;;4931969;28;87516;-85
2022/09/10 02:50:58;;;;;;;0.93;0.70;;;23.50;55.80;;;;;;4930520;28;87782;-86
2022/09/10 02:53:24;;;;;;;1.58;0.82;;;23.50;55.80;;;;;;4929939;28;88249;-86
2022/09/10 02:55:50;;;;;;;1.63;1.10;;;23.50;55.90;;;;;;4930194;28;88190;-86
2022/09/10 02:58:16;;;;;;;1.70;0.95;;;23.50;55.90;;;;;;4931533;28;87954;-86
2022/09/10 03:00:44;;;;;;;1.85;0.90;;;23.50;55.90;;;;;;4930044;28;89017;-86
2022/09/10 03:03:11;;;;;;;1.17;0.70;;;23.50;55.70;;;;;;4931339;28;88994;-86
2022/09/10 03:05:37;;;;;;;1.23;0.70;;;23.50;55.80;;;;;;4930019;28;87317;-86
2022/09/10 03:08:04;;;;;;;2.65;0.98;;;23.50;55.80;;;;;;4931129;28;87195;-86
2022/09/10 03:10:30;;;;;;;1.55;0.60;;;23.50;55.70;;;;;;4930700;28;89583;-86
2022/09/10 03:12:56;;;;;;;1.52;0.90;;;23.50;55.80;;;;;;4930255;28;88423;-86
2022/09/10 03:15:22;;;;;;;0.70;0.60;;;23.50;55.70;;;;;;4967612;28;87626;-86
2022/09/10 03:17:48;;;;;;;1.33;0.85;;;23.50;55.70;;;;;;4948448;28;86561;-86
2022/09/10 03:20:17;;;;;;;1.65;0.90;;;23.50;55.90;;;;;;4947621;28;88646;-86
2022/09/10 03:22:43;;;;;;;2.10;1.02;;;23.50;55.70;;;;;;4938609;28;91210;-86
2022/09/10 03:25:09;;;;;;;1.48;0.73;;;23.50;55.80;;;;;;4948137;28;88383;-86
2022/09/10 03:27:35;;;;;;;1.33;0.60;;;23.50;55.80;;;;;;4939181;28;90770;-86
2022/09/10 03:30:01;;;;;;;0.82;0.65;;;23.50;55.70;;;;;;4947890;28;88401;-86
2022/09/10 03:32:27;;;;;;;0.98;0.63;;;23.50;55.80;;;;;;4948508;28;88417;-86
2022/09/10 03:34:53;;;;;;;1.73;1.00;;;23.50;55.80;;;;;;4947090;28;86953;-86
2022/09/10 03:37:19;;;;;;;2.05;0.90;;;23.50;55.80;;;;;;4946824;28;87806;-86
2022/09/10 03:39:45;;;;;;;2.25;0.75;;;23.50;55.80;;;;;;4949427;28;88780;-86
2022/09/10 03:42:11;;;;;;;1.35;0.70;;;23.50;55.90;;;;;;4967948;28;87494;-86
2022/09/10 03:44:37;;;;;;;0.90;0.60;;;23.50;55.70;;;;;;4948157;28;87309;-86
2022/09/10 03:47:03;;;;;;;0.88;0.50;;;23.50;55.80;;;;;;4960025;28;87185;-85
2022/09/10 03:49:29;;;;;;;1.45;0.90;;;23.50;55.80;;;;;;4965495;28;89322;-86
2022/09/10 03:51:55;;;;;;;1.08;0.63;;;23.50;55.80;;;;;;4953624;28;92525;-86
2022/09/10 03:54:21;;;;;;;0.77;0.70;;;23.50;55.80;;;;;;4931742;28;86846;-86
2022/09/10 03:56:46;;;;;;;1.00;0.70;;;23.50;55.80;;;;;;4929928;28;87401;-86
2022/09/10 03:59:12;;;;;;;0.90;0.70;;;23.50;55.80;;;;;;4929768;28;88314;-86
2022/09/10 04:01:38;;;;;;;0.85;0.63;;;23.50;55.80;;;;;;4931035;28;87788;-86
2022/09/10 04:04:04;;;;;;;0.77;0.70;;;23.50;55.90;;;;;;4929551;28;87567;-85
2022/09/10 04:06:33;;;;;;;1.30;0.75;;;23.50;55.80;;;;;;4930046;28;86908;-83
2022/09/10 04:09:00;;;;;;;1.33;0.70;;;23.50;55.80;;;;;;4930785;28;89254;-85
2022/09/10 04:11:26;;;;;;;1.60;0.88;;;23.50;55.80;;;;;;4928303;28;90999;-86
2022/09/10 04:13:53;;;;;;;0.70;0.70;;;23.50;55.80;;;;;;4928820;28;88314;-86
2022/09/10 04:16:18;;;;;;;1.02;0.80;;;23.50;55.80;;;;;;4929466;28;87602;-86
2022/09/10 04:18:44;;;;;;;1.10;0.80;;;23.50;55.80;;;;;;4929583;28;87519;-86
2022/09/10 04:21:11;;;;;;;1.70;0.70;;;23.50;55.80;;;;;;4960389;28;91518;-86
2022/09/10 04:23:37;;;;;;;0.95;0.60;;;23.50;55.70;;;;;;4929500;28;87109;-85
2022/09/10 04:26:22;;;;;;;0.90;0.73;;;23.50;55.80;;;;;;4928531;28;87187;-85
2022/09/10 04:28:48;;;;;;;0.77;0.77;;;23.50;55.70;;;;;;4928085;28;88176;-86
2022/09/10 04:31:14;;;;;;;1.02;0.63;;;23.50;55.80;;;;;;4929756;28;87258;-86
2022/09/10 04:33:39;;;;;;;1.13;0.85;;;23.50;55.70;;;;;;4959570;28;86936;-86
2022/09/10 04:36:05;;;;;;;1.15;1.00;;;23.50;55.70;;;;;;4930473;28;87416;-86
2022/09/10 04:38:31;;;;;;;0.95;0.68;;;23.50;55.60;;;;;;4930373;28;88986;-86
2022/09/10 04:40:59;;;;;;;0.98;0.80;;;23.40;55.70;;;;;;4931651;28;92358;-86
2022/09/10 04:43:25;;;;;;;1.13;0.90;;;23.40;55.60;;;;;;4933006;28;87176;-86
2022/09/10 04:45:54;;;;;;;0.93;0.60;;;23.50;55.80;;;;;;4932583;28;87719;-86
2022/09/10 04:48:22;;;;;;;1.27;0.88;;;23.50;55.70;;;;;;4934429;28;88692;-86
2022/09/10 04:50:48;;;;;;;0.90;0.70;;;23.50;55.80;;;;;;4933248;28;88519;-86
2022/09/10 04:53:14;;;;;;;1.10;0.93;;;23.50;55.50;;;;;;4932241;28;87262;-86
2022/09/10 04:55:42;;;;;;;1.23;0.70;;;23.40;55.60;;;;;;4931056;28;89442;-86
2022/09/10 04:58:08;;;;;;;1.35;0.70;;;23.40;55.80;;;;;;4931935;28;88665;-86
2022/09/10 05:00:34;;;;;;;1.35;0.90;;;23.40;55.50;;;;;;4965089;28;89702;-87
2022/09/10 05:02:59;;;;;;;1.10;0.70;;;23.40;55.60;;;;;;4932272;28;88174;-86
2022/09/10 05:05:27;;;;;;;1.23;0.70;;;23.50;55.60;;;;;;4932320;28;87728;-86
2022/09/10 05:07:53;;;;;;;1.40;0.70;;;23.40;55.50;;;;;;4932088;28;87302;-86
2022/09/10 05:10:19;;;;;;;1.10;0.80;;;23.40;55.60;;;;;;4932233;28;87302;-85
2022/09/10 05:12:45;;;;;;;0.90;0.70;;;23.50;55.80;;;;;;4932283;28;88734;-85
2022/09/10 05:15:10;;;;;;;3.13;0.82;;;23.40;55.80;;;;;;4931531;28;90564;-85
2022/09/10 05:17:36;;;;;;;3.60;0.90;;;23.50;55.70;;;;;;4930044;28;89480;-84
2022/09/10 05:20:05;;;;;;;1.48;0.80;;;23.40;55.60;;;;;;4928712;28;91830;-84
2022/09/10 05:22:31;;;;;;;3.40;1.00;;;23.40;55.70;;;;;;4962514;28;87516;-85
2022/09/10 05:24:57;;;;;;;1.95;0.90;;;23.40;55.80;;;;;;4931733;28;87669;-84
2022/09/10 05:27:22;;;;;;;1.17;0.90;;;23.40;56.20;;;;;;4931621;28;88658;-85
2022/09/10 05:29:48;;;;;;;2.90;0.75;;;23.50;56.40;;;;;;4930604;28;90674;-84
2022/09/10 05:32:13;;;;;;;1.83;0.90;;;23.40;56.50;;;;;;4932605;28;87396;-84
2022/09/10 05:34:39;;;;;;;2.33;0.90;;;23.50;56.40;;;;;;4930232;28;87864;-85
2022/09/10 05:37:07;;;;;;;2.08;1.30;;;23.50;56.40;;;;;;4963317;28;90022;-84
2022/09/10 05:39:33;;;;;;;3.28;1.65;;;23.40;56.40;;;;;;4931329;28;87360;-87
2022/09/10 05:42:01;;;;;;;10.63;3.40;;;23.40;56.50;;;;;;4932804;28;87586;-85
2022/09/10 05:44:26;;;;;;;16.48;5.57;;;23.40;56.50;;;;;;4932742;28;86354;-84
2022/09/10 05:46:52;;;;;;;8.20;3.00;;;23.40;56.50;;;;;;4962689;28;92065;-84
2022/09/10 05:49:18;;;;;;;14.48;3.78;;;23.40;56.50;;;;;;4929284;28;88082;-84
2022/09/10 05:51:43;;;;;;;10.65;3.63;;;23.40;56.60;;;;;;4931289;28;87924;-85
2022/09/10 05:54:10;;;;;;;12.18;3.20;;;23.50;56.60;;;;;;4934201;28;87422;-85
2022/09/10 05:56:36;;;;;;;10.82;3.25;;;23.50;56.50;;;;;;4952405;28;90638;-85
2022/09/10 05:59:02;;;;;;;9.10;3.28;;;23.50;56.60;;;;;;4930832;28;87769;-85
2022/09/10 06:01:30;;;;;;;9.02;2.95;;;23.40;56.80;;;;;;4931390;28;87113;-85
2022/09/10 06:03:56;;;;;;;10.02;2.67;;;23.40;56.80;;;;;;4930387;28;87884;-85
2022/09/10 06:06:24;;;;;;;6.60;3.08;;;23.40;56.60;;;;;;4933330;28;87436;-85
2022/09/10 06:08:50;;;;;;;8.63;2.83;;;23.40;56.80;;;;;;4962509;28;90046;-85
2022/09/10 06:11:16;;;;;;;9.05;3.13;;;23.40;56.80;;;;;;4929983;28;87380;-85
2022/09/10 06:13:42;;;;;;;10.10;3.42;;;23.40;56.90;;;;;;4932078;28;87378;-85
2022/09/10 06:16:08;;;;;;;6.15;2.65;;;23.30;56.90;;;;;;4931149;28;89050;-85
2022/09/10 06:18:34;;;;;;;8.63;2.92;;;23.40;57.00;;;;;;4931342;28;89017;-85
2022/09/10 06:21:28;;;;;;;9.48;2.67;;;23.40;57.10;;;;;;4932179;28;86924;-85
2022/09/10 06:23:54;;;;;;;9.23;2.60;;;23.30;57.10;;;;;;4940829;28;90564;-85
2022/09/10 06:26:20;;;;;;;8.35;2.90;;;23.30;57.30;;;;;;4956604;28;88348;-85
2022/09/10 06:28:46;;;;;;;5.32;2.40;;;23.30;57.40;;;;;;4957526;28;87465;-85
2022/09/10 06:31:16;;;;;;;7.68;2.88;;;23.30;57.30;;;;;;4958020;28;86939;-85
2022/09/10 06:33:43;;;;;;;8.63;2.63;;;23.20;57.30;;;;;;4957205;28;88646;-85
2022/09/10 06:36:09;;;;;;;7.18;2.63;;;23.20;57.30;;;;;;4959006;28;88784;-85
2022/09/10 06:38:35;;;;;;;8.43;2.67;;;23.30;57.30;;;;;;4957060;28;88361;-85
2022/09/10 06:41:04;;;;;;;7.30;2.92;;;23.30;57.30;;;;;;4957374;28;88370;-85
2022/09/10 06:43:38;;;;;;;14.70;3.28;;;23.30;57.40;;;;;;4972655;28;90333;-85
2022/09/10 06:46:12;;;;;;;10.52;2.80;;;23.40;57.30;;;;;;4956898;28;88054;-85
2022/09/10 06:48:39;;;;;;;12.40;2.80;;;23.30;56.90;;;;;;4956590;28;87435;-87
2022/09/10 06:51:09;;;;;;;8.52;2.67;;;23.30;57.20;;;;;;4933407;28;87011;-85
2022/09/10 06:53:36;;;;;;;79.07;15.65;;;23.30;57.20;;;;;;4955426;28;89891;-86
2022/09/10 06:56:04;;;;;;;60.00;11.98;;;23.30;57.60;;;;;;4956575;28;89144;-86
2022/09/10 06:58:32;;;;;;;52.57;10.87;;;23.30;57.80;;;;;;4951818;28;87437;-85
2022/09/10 07:01:04;;;;;;;37.75;9.13;;;23.30;57.80;;;;;;4941590;28;87290;-85
2022/09/10 07:03:29;;;;;;;43.42;9.43;;;23.40;58.10;;;;;;4944939;28;89403;-86
2022/09/10 07:05:55;;;;;;;36.58;8.82;;;23.40;57.90;;;;;;4929377;28;93482;-85
2022/09/10 07:08:21;;;;;;;34.42;8.40;;;23.40;58.10;;;;;;4930244;28;89792;-85
2022/09/10 07:10:47;;;;;;;31.50;8.23;;;23.40;58.00;;;;;;4930902;28;87100;-86
2022/09/10 07:13:12;;;;;;;29.75;7.93;;;23.40;58.20;;;;;;4931591;28;87268;-85
2022/09/10 07:15:45;;;;;;;24.75;8.05;;;23.40;58.20;;;;;;4960248;28;90193;-85
2022/09/10 07:18:14;;;;;;;26.88;8.13;;;23.30;58.10;;;;;;4946190;28;91879;-85
2022/09/10 07:20:42;;;;;;;;;;;23.30;58.30;;;;;;4930249;28;87331;-85
2022/09/10 07:23:10;;;;;;;21.90;7.13;;;23.30;58.20;;;;;;4933373;28;86179;-85
2022/09/10 07:25:36;;;;;;;25.88;7.20;;;23.30;58.30;;;;;;4960675;28;91791;-85
2022/09/10 07:28:02;;;;;;;23.40;6.57;;;23.30;58.40;;;;;;4930125;28;87253;-85
2022/09/10 07:30:29;;;;;;;24.75;6.80;;;23.30;58.30;;;;;;4929623;28;88095;-85
2022/09/10 07:32:55;;;;;;;20.00;6.43;;;23.30;58.20;;;;;;4927499;28;94807;-85
2022/09/10 07:35:21;;;;;;;19.45;6.60;;;23.40;58.30;;;;;;4927935;28;90950;-85
2022/09/10 07:37:48;;;;;;;23.75;7.43;;;23.30;58.40;;;;;;4928882;28;90757;-85
2022/09/10 07:40:14;;;;;;;15.05;5.78;;;23.30;58.40;;;;;;4928870;28;87336;-85
2022/09/10 07:42:43;;;;;;;19.52;6.40;;;23.30;58.30;;;;;;4930636;28;87328;-85
2022/09/10 07:45:14;;;;;;;18.17;6.13;;;23.40;58.30;;;;;;4930479;28;87314;-85
2022/09/10 07:47:43;;;;;;;15.02;6.13;;;23.40;58.20;;;;;;4944765;28;89764;-86
2022/09/10 07:50:09;;;;;;;12.70;5.63;;;23.40;58.00;;;;;;4946106;28;87038;-83
2022/09/10 07:52:35;;;;;;;12.80;5.80;;;23.30;57.90;;;;;;4930796;28;87146;-84
2022/09/10 07:55:01;;;;;;;11.52;5.45;;;23.40;58.20;;;;;;4926681;28;92387;-84
2022/09/10 07:57:28;;;;;;;15.07;5.68;;;23.30;58.00;;;;;;4928189;28;88363;-84
2022/09/10 07:59:54;;;;;;;15.70;5.82;;;23.40;58.00;;;;;;4966914;28;87624;-84
2022/09/10 08:02:20;;;;;;;15.23;6.07;;;23.40;58.10;;;;;;4939884;28;90671;-85
2022/09/10 08:04:46;;;;;;;14.90;5.70;;;23.40;57.90;;;;;;4956108;28;89039;-84
2022/09/10 08:07:13;;;;;;;12.55;5.07;;;23.40;58.10;;;;;;4965321;28;89819;-83
2022/09/10 08:09:38;;;;;;;12.02;5.50;;;23.40;58.10;;;;;;4964140;28;87141;-82
2022/09/10 08:12:06;;;;;;;9.32;4.85;;;23.30;58.40;;;;;;4964286;28;87221;-82
2022/09/10 08:14:32;;;;;;;12.25;5.22;;;23.30;58.70;;;;;;4966700;28;88583;-82
2022/09/10 08:16:57;;;;;;;10.80;5.85;;;23.30;58.80;;;;;;4970587;28;87510;-83
2022/09/10 08:19:23;;;;;;;10.05;5.55;;;23.20;59.10;;;;;;4968454;28;88471;-83
2022/09/10 08:21:49;;;;;;;9.95;5.15;;;23.20;59.10;;;;;;4968675;28;89144;-83
2022/09/10 08:24:15;;;;;;;10.63;5.18;;;23.10;59.40;;;;;;4969082;28;87834;-82
2022/09/10 08:26:41;;;;;;;9.43;5.22;;;23.10;59.40;;;;;;4969101;28;90495;-82
2022/09/10 08:29:06;;;;;;;8.93;5.07;;;23.00;59.60;;;;;;4968153;28;87057;-82
2022/09/10 08:31:33;;;;;;;8.70;4.53;;;23.00;59.80;;;;;;4940469;28;87513;-82
2022/09/10 08:33:59;;;;;;;9.43;5.18;;;23.00;59.90;;;;;;4931681;28;88612;-82
2022/09/10 08:36:25;;;;;;;9.90;4.93;;;23.00;60.10;;;;;;4932998;28;88325;-82
2022/09/10 08:38:51;;;;;;;9.13;5.13;;;23.00;60.30;;;;;;4932483;28;87492;-82
2022/09/10 08:41:31;;;;;;;9.10;4.90;;;22.90;60.40;;;;;;4931035;28;87715;-81
2022/09/10 08:44:09;;;;;;;9.52;5.13;;;23.00;60.50;;;;;;4962665;28;91124;-82
2022/09/10 08:47:00;;;;;;;11.93;5.63;;;23.00;60.70;;;;;;4932559;28;89919;-82
2022/09/10 08:49:47;;;;;;;10.55;5.57;;;23.00;60.90;;;;;;4931683;28;87593;-82
2022/09/10 08:52:28;;;;;;;9.20;4.95;;;23.00;61.10;;;;;;4930176;28;87509;-82
2022/09/10 08:54:54;;;;;;;9.25;5.38;;;22.90;61.20;;;;;;4928199;28;87743;-82
2022/09/10 08:57:33;;;;;;;8.57;5.30;;;22.90;61.80;;;;;;4929986;28;88303;-82
2022/09/10 09:00:00;;;;;;;8.73;5.35;;;22.90;61.70;;;;;;4934316;28;87293;-83
2022/09/10 09:02:38;;;;;;;7.10;4.57;;;22.90;61.50;;;;;;4931355;28;89727;-82
2022/09/10 09:05:16;;;;;;;9.88;4.72;;;22.90;61.30;;;;;;4932173;28;87366;-82
2022/09/10 09:07:42;;;;;;;8.93;5.00;;;22.90;61.20;;;;;;4963585;28;90151;-83
2022/09/10 09:10:19;;;;;;;13.90;4.85;;;23.00;60.90;;;;;;4963095;28;88198;-82
2022/09/10 09:12:58;;;;;;;8.65;5.03;;;23.00;61.10;;;;;;4931248;28;87455;-85
2022/09/10 09:15:37;;;;;;;10.43;5.85;;;23.00;62.10;;;;;;4933718;28;87748;-85
2022/09/10 09:18:20;;;;;;;10.15;5.47;;;22.90;61.70;;;;;;4931817;28;92735;-84
2022/09/10 09:20:52;;;;;;;12.38;5.13;;;22.90;61.60;;;;;;4931320;28;87357;-84
2022/09/10 09:23:25;;;;;;;7.65;4.82;;;22.90;61.90;;;;;;4932844;28;87216;-85
2022/09/10 09:25:57;;;;;;;9.30;4.30;;;23.00;61.60;;;;;;4931249;28;88075;-83
2022/09/10 09:28:42;;;;;;;8.05;4.80;;;22.90;61.60;;;;;;4932116;28;86667;-84
2022/09/10 09:31:27;;;;;;;9.57;5.75;;;22.90;61.60;;;;;;4961422;28;87111;-84
2022/09/10 09:34:06;;;;;;;10.38;5.80;;;22.90;61.90;;;;;;4931902;28;86894;-86
2022/09/10 09:36:41;;;;;;;12.63;5.60;;;22.90;62.40;;;;;;4963433;28;92140;-83
2022/09/10 09:39:22;;;;;;;9.73;6.00;;;22.90;62.80;;;;;;4933608;28;88968;-82
2022/09/10 09:41:54;;;;;;;8.85;5.38;;;22.90;62.70;;;;;;4931682;28;87414;-82
2022/09/10 09:44:26;;;;;;;7.22;4.18;;;22.90;62.90;;;;;;4929185;28;90493;-83
2022/09/10 09:46:51;;;;;;;8.93;4.70;;;23.00;61.80;;;;;;4930738;28;88961;-83
2022/09/10 09:49:17;;;;;;;7.40;4.20;;;23.10;61.20;;;;;;4962752;28;90051;-83
2022/09/10 09:51:45;;;;;;;7.13;4.72;;;23.20;61.10;;;;;;4931712;28;86886;-82
2022/09/10 09:54:17;;;;;;;8.10;5.10;;;23.20;61.30;;;;;;4933225;28;86235;-84
2022/09/10 09:56:48;;;;;;;8.52;4.55;;;23.20;62.40;;;;;;4931295;28;89183;-83
2022/09/10 09:59:26;;;;;;;8.88;5.00;;;23.20;62.60;;;;;;4931827;28;87387;-83
2022/09/10 10:01:53;;;;;;;9.60;4.90;;;23.20;63.40;;;;;;4931726;28;88160;-83
2022/09/10 10:04:24;;;;;;;8.30;4.70;;;23.20;63.30;;;;;;4963129;28;89478;-83
2022/09/10 10:06:58;;;;;;;10.93;4.60;;;23.20;62.40;;;;;;4931097;28;88545;-83
2022/09/10 10:09:42;;;;;;;9.25;4.60;;;23.20;62.80;;;;;;4932863;28;87243;-83
2022/09/10 10:12:18;;;;;;;6.75;4.90;;;23.20;63.20;;;;;;4931155;28;86855;-83
2022/09/10 10:14:44;;;;;;;6.72;4.10;;;23.20;63.30;;;;;;4931501;28;88224;-82
2022/09/10 10:17:34;;;;;;;8.07;4.70;;;23.20;62.80;;;;;;4962664;28;91116;-82
2022/09/10 10:20:09;;;;;;;6.35;4.40;;;23.30;63.30;;;;;;4933737;28;93892;-82
2022/09/10 10:22:37;;;;;;;6.28;4.70;;;23.30;63.00;;;;;;4932703;28;87396;-82
2022/09/10 10:25:24;;;;;;;6.45;4.85;;;23.30;63.00;;;;;;4961341;28;90152;-83
2022/09/10 10:27:53;;;;;;;6.82;4.32;;;23.30;62.60;;;;;;4930397;28;90320;-82
2022/09/10 10:30:21;;;;;;;11.03;4.80;;;23.30;62.30;;;;;;4930590;28;92275;-82
2022/09/10 10:32:55;;;;;;;10.10;4.47;;;23.30;62.20;;;;;;4932740;28;86995;-82
2022/09/10 10:35:33;;;;;;;9.75;4.65;;;23.30;62.40;;;;;;4929205;28;87761;-84
2022/09/10 10:38:13;;;;;;;9.00;4.80;;;23.40;62.30;;;;;;4960779;28;91530;-83
2022/09/10 10:41:06;;;;;;;6.93;4.05;;;23.30;62.10;;;;;;4929490;28;88764;-83
2022/09/10 10:44:11;;;;;;;9.48;4.70;;;23.30;62.70;;;;;;4934822;28;87979;-84
2022/09/10 10:47:02;;;;;;;10.57;4.60;;;23.30;62.20;;;;;;4930000;28;88711;-85
2022/09/10 10:49:38;;;;;;;9.27;4.50;;;23.40;62.30;;;;;;4888053;28;89002;-84
2022/09/10 10:52:30;;;;;;;8.30;4.53;;;23.30;62.40;;;;;;4945226;28;88637;-84
2022/09/10 10:55:22;;;;;;;10.02;4.43;;;23.40;62.80;;;;;;4932171;28;87903;-85
2022/09/10 10:58:10;;;;;;;11.80;4.70;;;23.40;62.20;;;;;;4930736;28;87416;-84
2022/09/10 11:00:42;;;;;;;9.38;4.43;;;23.40;62.50;;;;;;4931026;28;88237;-84
2022/09/10 11:03:21;;;;;;;7.32;4.07;;;23.30;62.20;;;;;;4930771;28;88602;-84
2022/09/10 11:05:52;;;;;;;5.85;4.25;;;23.40;62.00;;;;;;4930773;28;87664;-84
2022/09/10 11:08:39;;;;;;;10.90;4.55;;;23.40;62.30;;;;;;4930458;28;87416;-84
2022/09/10 11:11:19;;;;;;;9.73;4.20;;;23.40;62.10;;;;;;4929678;28;91473;-84
2022/09/10 11:14:06;;;;;;;11.43;4.95;;;23.40;62.50;;;;;;4929783;28;87254;-85
2022/09/10 11:16:54;;;;;;;6.03;4.43;;;23.30;62.00;;;;;;4932221;28;86885;-84
2022/09/10 11:19:57;;;;;;;7.70;4.22;;;23.30;62.00;;;;;;4930985;28;87516;-84
2022/09/10 11:22:29;;;;;;;9.15;4.22;;;23.30;62.00;;;;;;4928541;28;88599;-84
2022/09/10 11:25:15;;;;;;;11.27;4.75;;;23.30;62.10;;;;;;4960398;28;92939;-83
2022/09/10 11:27:45;;;;;;;12.75;4.78;;;23.30;63.20;;;;;;4960288;28;87246;-84
2022/09/10 11:30:15;;;;;;;11.73;4.70;;;23.30;63.50;;;;;;4930834;28;87008;-84
2022/09/10 11:32:59;;;;;;;7.10;4.25;;;23.20;63.40;;;;;;4931372;28;87426;-83
2022/09/10 11:35:32;;;;;;;8.70;3.97;;;23.20;63.30;;;;;;4929068;28;88939;-83
2022/09/10 11:38:23;;;;;;;10.75;4.07;;;23.20;63.30;;;;;;4927134;28;87022;-83
2022/09/10 11:41:25;;;;;;;8.05;3.92;;;23.30;63.30;;;;;;4931622;28;86704;-83
2022/09/10 11:44:11;;;;;;;9.52;4.43;;;23.20;63.10;;;;;;4929030;28;87057;-84
2022/09/10 11:46:39;;;;;;;11.23;4.03;;;23.20;63.00;;;;;;4930915;28;87341;-83
2022/09/10 11:49:15;;;;;;;6.28;3.40;;;23.40;62.80;;;;;;4930583;28;90720;-83
2022/09/10 11:51:43;;;;;;;8.48;3.80;;;23.30;62.60;;;;;;4960273;28;89282;-83
2022/09/10 11:54:24;;;;;;;6.90;3.58;;;23.30;62.40;;;;;;4931092;28;88091;-83
2022/09/10 11:57:27;;;;;;;6.63;3.05;;;23.20;62.40;;;;;;4929230;28;88240;-83
2022/09/10 12:00:17;;;;;;;6.10;3.40;;;23.30;62.30;;;;;;4959268;28;87030;-84
2022/09/10 12:03:16;;;;;;;7.97;2.85;;;23.30;62.30;;;;;;4931044;28;87581;-84
2022/09/10 12:05:56;;;;;;;;;;;23.20;62.30;;;;;;4928885;28;88725;-83
2022/09/10 12:08:41;;;;;;;5.90;3.25;;;23.20;62.50;;;;;;4931728;28;88135;-84
2022/09/10 12:11:30;;;;;;;7.43;3.85;;;23.20;62.60;;;;;;4929106;28;87234;-83
2022/09/10 12:13:57;;;;;;;7.85;3.92;;;23.20;62.50;;;;;;4930218;28;87410;-84
2022/09/10 12:16:35;;;;;;;6.07;3.65;;;23.20;62.50;;;;;;4959839;28;92121;-83
2022/09/10 12:19:06;;;;;;;6.47;3.10;;;23.20;62.60;;;;;;4929292;28;88054;-84
2022/09/10 12:21:51;;;;;;;8.70;3.35;;;23.20;62.20;;;;;;4937097;28;87377;-84
2022/09/10 12:24:31;;;;;;;9.40;3.60;;;23.20;62.20;;;;;;4930195;28;87643;-83
2022/09/10 12:26:59;;;;;;;8.77;3.30;;;23.30;62.30;;;;;;4962150;28;95827;-84
2022/09/10 12:29:36;;;;;;;7.18;3.25;;;23.30;62.50;;;;;;4929241;28;87369;-83
2022/09/10 12:32:08;;;;;;;8.05;3.53;;;23.30;62.00;;;;;;4928757;28;87408;-83
2022/09/10 12:34:36;;;;;;;7.20;3.17;;;23.30;62.10;;;;;;4930065;28;86479;-84
2022/09/10 12:37:01;;;;;;;10.07;3.15;;;23.20;62.20;;;;;;4926860;28;91461;-83
2022/09/10 12:39:28;;;;;;;7.40;3.05;;;23.30;62.60;;;;;;4929840;28;88219;-83
2022/09/10 12:41:57;;;;;;;6.85;3.33;;;23.30;63.00;;;;;;4928032;28;88145;-83
2022/09/10 12:44:35;;;;;;;8.20;3.30;;;23.30;63.10;;;;;;4929266;28;87315;-84
2022/09/10 12:47:12;;;;;;;7.68;3.30;;;23.30;62.70;;;;;;4960406;28;93850;-84
2022/09/10 12:49:51;;;;;;;6.07;3.17;;;23.40;62.10;;;;;;4928069;28;87346;-83
2022/09/10 12:52:22;;;;;;;6.63;3.38;;;23.50;62.00;;;;;;4928868;28;86919;-83
2022/09/10 12:55:03;;;;;;;4.43;2.55;;;23.40;63.50;;;;;;4929653;28;87586;-83
2022/09/10 12:57:34;;;;;;;8.90;3.08;;;23.40;62.80;;;;;;4928461;28;89704;-84
2022/09/10 13:00:17;;;;;;;8.10;2.90;;;23.40;63.00;;;;;;4928691;28;94234;-84
2022/09/10 13:02:46;;;;;;;4.70;2.67;;;23.40;61.60;;;;;;4931645;28;87044;-83
2022/09/10 13:05:28;;;;;;;6.00;2.60;;;23.40;62.10;;;;;;4931820;28;88303;-84
2022/09/10 13:08:08;;;;;;;7.72;2.80;;;23.40;62.80;;;;;;4944250;28;88562;-83